createdAt,value
2023-04-02T00:03:08.870Z,9.30
2023-04-02T00:04:08.870Z,9.30
2023-04-02T00:09:08.715Z,9.22
2023-04-02T00:10:08.714Z,9.27
2023-04-02T00:11:08.695Z,9.25
2023-04-02T00:12:08.687Z,9.20
2023-04-02T00:13:08.668Z,9.17
2023-04-02T00:14:08.662Z,9.16
2023-04-02T00:15:08.646Z,9.17
2023-04-02T00:16:08.678Z,9.22
2023-04-02T00:18:08.659Z,9.17
2023-04-02T00:19:08.632Z,9.14
2023-04-02T00:20:14.608Z,9.13
2023-04-02T00:21:08.583Z,9.09
2023-04-02T00:22:08.582Z,9.07
2023-04-02T00:23:08.563Z,9.05
2023-04-02T00:24:08.564Z,9.05
2023-04-02T00:25:08.544Z,9.07
2023-04-02T00:26:08.747Z,9.01
2023-04-02T00:27:08.524Z,9.02
2023-04-02T00:28:08.521Z,8.99
2023-04-02T00:29:08.506Z,8.99
2023-04-02T00:30:08.500Z,8.98
2023-04-02T00:31:08.485Z,8.98
2023-04-02T00:32:08.557Z,8.95
2023-04-02T00:33:08.504Z,8.96
2023-04-02T00:34:08.457Z,8.91
2023-04-02T00:35:08.464Z,8.94
2023-04-02T00:36:08.507Z,8.94
2023-04-02T00:37:08.426Z,8.89
2023-04-02T00:38:08.418Z,8.86
2023-04-02T00:39:08.406Z,8.87
2023-04-02T00:40:08.599Z,8.84
2023-04-02T00:41:08.379Z,8.84
2023-04-02T00:42:08.374Z,8.89
2023-04-02T00:43:08.368Z,8.87
2023-04-02T00:44:08.353Z,8.83
2023-04-02T00:45:08.338Z,8.91
2023-04-02T00:46:08.368Z,8.89
2023-04-02T00:47:08.320Z,8.87
2023-04-02T00:48:08.325Z,8.87
2023-04-02T00:49:08.297Z,8.84
2023-04-02T00:50:08.295Z,8.86
2023-04-02T00:51:08.299Z,8.83
2023-04-02T00:52:08.271Z,8.91
2023-04-02T00:53:08.264Z,8.87
2023-04-02T00:54:08.453Z,8.86
2023-04-02T00:55:08.237Z,8.86
2023-04-02T00:56:08.234Z,8.86
2023-04-02T00:57:08.477Z,8.92
2023-04-02T00:58:08.215Z,8.86
2023-04-02T00:59:08.194Z,8.91
2023-04-02T01:00:08.192Z,8.94
2023-04-02T01:01:08.200Z,8.91
2023-04-02T01:02:08.226Z,8.89
2023-04-02T01:04:08.147Z,8.87
2023-04-02T01:05:08.126Z,8.86
2023-04-02T01:06:08.129Z,8.87
2023-04-02T01:07:08.131Z,8.84
2023-04-02T01:08:08.114Z,8.84
2023-04-02T01:09:08.106Z,8.91
2023-04-02T01:10:08.088Z,8.84
2023-04-02T01:11:08.066Z,8.86
2023-04-02T01:12:08.077Z,8.84
2023-04-02T01:13:08.047Z,8.84
2023-04-02T01:14:08.352Z,8.86
2023-04-02T01:15:08.032Z,8.83
2023-04-02T01:16:08.111Z,8.81
2023-04-02T01:17:08.003Z,8.79
2023-04-02T01:18:08.056Z,8.81
2023-04-02T01:19:07.996Z,8.84
2023-04-02T01:20:07.992Z,8.83
2023-04-02T01:21:07.963Z,8.81
2023-04-02T01:22:07.957Z,8.81
2023-04-02T01:23:07.963Z,8.80
2023-04-02T01:24:07.944Z,8.80
2023-04-02T01:25:07.921Z,8.77
2023-04-02T01:26:07.925Z,8.81
2023-04-02T01:27:07.900Z,8.80
2023-04-02T01:28:07.892Z,8.80
2023-04-02T01:29:07.874Z,8.83
2023-04-02T01:30:07.876Z,8.77
2023-04-02T01:31:07.905Z,8.80
2023-04-02T01:32:07.857Z,8.77
2023-04-02T01:33:07.855Z,8.80
2023-04-02T01:34:07.832Z,8.80
2023-04-02T01:35:07.814Z,8.79
2023-04-02T01:36:07.837Z,8.76
2023-04-02T01:37:07.989Z,8.79
2023-04-02T01:38:07.792Z,8.74
2023-04-02T01:39:07.795Z,8.76
2023-04-02T01:40:07.778Z,8.80
2023-04-02T01:41:07.752Z,8.81
2023-04-02T01:42:07.748Z,8.80
2023-04-02T01:43:07.734Z,8.79
2023-04-02T01:44:07.728Z,8.80
2023-04-02T01:45:07.712Z,8.81
2023-04-02T01:46:07.754Z,8.81
2023-04-02T01:47:07.692Z,8.81
2023-04-02T01:48:07.791Z,8.83
2023-04-02T01:49:07.675Z,8.79
2023-04-02T01:50:07.676Z,8.77
2023-04-02T01:51:07.663Z,8.76
2023-04-02T01:52:07.642Z,8.76
2023-04-02T01:53:07.630Z,8.71
2023-04-02T01:54:07.632Z,8.76
2023-04-02T01:55:07.624Z,8.76
2023-04-02T01:56:07.606Z,8.76
2023-04-02T01:57:07.656Z,8.70
2023-04-02T01:58:13.592Z,8.74
2023-04-02T01:59:07.566Z,8.71
2023-04-02T02:00:07.565Z,8.73
2023-04-02T02:01:07.569Z,8.68
2023-04-02T02:02:07.586Z,8.68
2023-04-02T02:03:07.538Z,8.71
2023-04-02T02:04:09.575Z,8.70
2023-04-02T02:05:07.510Z,8.73
2023-04-02T02:06:07.499Z,8.76
2023-04-02T02:07:07.495Z,8.71
2023-04-02T02:08:07.471Z,8.77
2023-04-02T02:09:13.478Z,8.73
2023-04-02T02:10:07.446Z,8.74
2023-04-02T02:11:07.701Z,8.76
2023-04-02T02:12:07.427Z,8.76
2023-04-02T02:13:07.429Z,8.76
2023-04-02T02:14:07.410Z,8.77
2023-04-02T02:15:07.412Z,8.74
2023-04-02T02:16:07.449Z,8.79
2023-04-02T02:17:07.404Z,8.74
2023-04-02T02:18:07.368Z,8.73
2023-04-02T02:19:07.370Z,8.77
2023-04-02T02:20:07.352Z,8.77
2023-04-02T02:21:07.347Z,8.76
2023-04-02T02:22:07.326Z,8.77
2023-04-02T02:23:07.330Z,8.79
2023-04-02T02:24:07.310Z,8.77
2023-04-02T02:25:07.302Z,8.74
2023-04-02T02:26:07.289Z,8.76
2023-04-02T02:27:07.312Z,8.77
2023-04-02T02:28:07.271Z,8.79
2023-04-02T02:29:07.261Z,8.79
2023-04-02T02:30:13.262Z,8.76
2023-04-02T02:31:07.243Z,8.79
2023-04-02T02:32:07.295Z,8.77
2023-04-02T02:33:07.227Z,8.76
2023-04-02T02:34:07.212Z,8.77
2023-04-02T02:35:07.404Z,8.74
2023-04-02T02:36:07.226Z,8.73
2023-04-02T02:37:07.213Z,8.77
2023-04-02T02:38:07.165Z,8.77
2023-04-02T02:39:13.168Z,8.76
2023-04-02T02:40:07.145Z,8.74
2023-04-02T02:41:07.141Z,8.77
2023-04-02T02:42:07.123Z,8.76
2023-04-02T02:43:07.157Z,8.76
2023-04-02T02:44:07.102Z,8.76
2023-04-02T02:45:07.101Z,8.77
2023-04-02T02:46:07.161Z,8.74
2023-04-02T02:47:07.077Z,8.77
2023-04-02T02:48:07.106Z,8.77
2023-04-02T02:49:07.061Z,8.77
2023-04-02T02:50:07.044Z,8.76
2023-04-02T02:51:07.037Z,8.73
2023-04-02T02:52:07.020Z,8.76
2023-04-02T02:53:07.015Z,8.77
2023-04-02T02:54:06.996Z,8.73
2023-04-02T02:55:07.009Z,8.77
2023-04-02T02:56:06.968Z,8.76
2023-04-02T02:57:07.005Z,8.76
2023-04-02T02:58:06.961Z,8.77
2023-04-02T02:59:06.992Z,8.79
2023-04-02T03:00:06.929Z,8.81
2023-04-02T03:01:12.960Z,8.80
2023-04-02T03:02:06.958Z,8.80
2023-04-02T03:03:06.957Z,8.81
2023-04-02T03:04:07.058Z,8.77
2023-04-02T03:05:06.890Z,8.79
2023-04-02T03:06:06.873Z,8.80
2023-04-02T03:07:07.076Z,8.80
2023-04-02T03:08:06.854Z,8.76
2023-04-02T03:09:06.851Z,8.74
2023-04-02T03:12:06.814Z,8.76
2023-04-02T03:56:06.361Z,8.76
2023-04-02T04:46:05.856Z,8.68
2023-04-02T04:47:05.807Z,8.66
2023-04-02T04:48:05.832Z,8.73
2023-04-02T04:49:05.758Z,8.66
2023-04-02T04:50:05.742Z,8.70
2023-04-02T04:51:05.763Z,8.74
2023-04-02T04:52:05.730Z,8.71
2023-04-02T04:53:05.744Z,8.73
2023-04-02T04:54:05.695Z,8.77
2023-04-02T04:55:06.108Z,8.76
2023-04-02T04:56:18.825Z,8.73
2023-04-02T04:57:06.715Z,8.79
2023-04-02T04:58:05.667Z,8.76
2023-04-02T04:59:05.656Z,8.79
2023-04-02T05:00:05.642Z,8.79
2023-04-02T05:01:05.646Z,8.80
2023-04-02T05:02:05.621Z,8.79
2023-04-02T05:03:05.671Z,8.79
2023-04-02T05:04:05.595Z,8.76
2023-04-02T05:05:05.620Z,8.79
2023-04-02T05:06:05.573Z,8.80
2023-04-02T05:07:05.603Z,8.79
2023-04-02T05:08:05.556Z,8.77
2023-04-02T05:09:05.552Z,8.79
2023-04-02T05:10:05.542Z,8.76
2023-04-02T05:11:05.538Z,8.81
2023-04-02T05:12:05.516Z,8.79
2023-04-02T05:13:07.559Z,8.79
2023-04-02T05:14:05.503Z,8.81
2023-04-02T05:15:05.488Z,8.80
2023-04-02T05:16:05.513Z,8.80
2023-04-02T05:17:05.468Z,8.80
2023-04-02T05:18:11.476Z,8.77
2023-04-02T05:19:05.482Z,8.79
2023-04-02T05:20:05.436Z,8.84
2023-04-02T05:21:05.418Z,8.80
2023-04-02T05:22:05.416Z,8.89
2023-04-02T05:23:05.432Z,8.83
2023-04-02T05:24:05.389Z,8.84
2023-04-02T05:25:05.378Z,8.87
2023-04-02T05:26:05.389Z,8.91
2023-04-02T05:27:05.355Z,8.91
2023-04-02T05:28:05.380Z,8.84
2023-04-02T05:29:05.341Z,8.87
2023-04-02T05:30:05.333Z,8.87
2023-04-02T05:31:05.550Z,8.87
2023-04-02T05:32:05.313Z,8.89
2023-04-02T05:33:05.394Z,8.87
2023-04-02T05:34:05.295Z,8.89
2023-04-02T05:35:05.279Z,8.91
2023-04-02T05:36:05.302Z,8.89
2023-04-02T05:37:06.928Z,8.92
2023-04-02T05:38:05.252Z,8.91
2023-04-02T05:39:05.265Z,8.94
2023-04-02T05:40:05.256Z,8.94
2023-04-02T05:41:05.419Z,8.96
2023-04-02T05:42:05.224Z,8.94
2023-04-02T05:43:05.200Z,8.94
2023-04-02T05:44:05.195Z,8.99
2023-04-02T05:45:05.180Z,8.95
2023-04-02T05:46:05.170Z,8.95
2023-04-02T05:47:05.146Z,8.92
2023-04-02T05:48:11.154Z,8.95
2023-04-02T05:49:05.130Z,8.94
2023-04-02T05:50:05.126Z,8.95
2023-04-02T05:51:05.108Z,8.98
2023-04-02T05:52:05.111Z,8.96
2023-04-02T05:53:06.137Z,8.92
2023-04-02T05:54:05.096Z,8.95
2023-04-02T05:55:05.111Z,8.99
2023-04-02T05:56:05.076Z,8.96
2023-04-02T05:57:05.083Z,8.98
2023-04-02T05:59:05.030Z,9.04
2023-04-02T06:00:05.036Z,9.02
2023-04-02T06:01:05.017Z,9.04
2023-04-02T06:02:05.033Z,9.02
2023-04-02T06:03:05.042Z,9.01
2023-04-02T06:04:05.055Z,8.96
2023-04-02T06:05:04.962Z,8.92
2023-04-02T06:06:04.965Z,8.89
2023-04-02T06:07:10.955Z,8.87
2023-04-02T06:08:04.949Z,8.83
2023-04-02T06:09:05.131Z,8.80
2023-04-02T06:10:04.956Z,8.77
2023-04-02T06:11:04.933Z,8.77
2023-04-02T06:12:04.905Z,8.73
2023-04-02T06:13:04.876Z,8.79
2023-04-02T06:14:04.891Z,8.80
2023-04-02T06:15:04.866Z,8.77
2023-04-02T06:16:04.852Z,8.77
2023-04-02T06:17:04.850Z,8.77
2023-04-02T06:18:04.906Z,8.77
2023-04-02T06:19:04.815Z,8.81
2023-04-02T06:20:04.812Z,8.83
2023-04-02T06:21:04.797Z,8.79
2023-04-02T06:22:04.794Z,8.84
2023-04-02T06:23:04.795Z,8.77
2023-04-02T06:24:10.775Z,8.81
2023-04-02T06:25:04.766Z,8.81
2023-04-02T06:26:04.750Z,8.87
2023-04-02T06:27:04.764Z,8.86
2023-04-02T06:28:04.734Z,8.87
2023-04-02T06:29:04.708Z,8.95
2023-04-02T06:30:04.715Z,8.91
2023-04-02T06:31:04.800Z,8.89
2023-04-02T06:32:04.697Z,8.91
2023-04-02T06:33:04.932Z,8.95
2023-04-02T06:34:04.685Z,8.94
2023-04-02T06:35:04.652Z,8.91
2023-04-02T06:36:04.707Z,8.92
2023-04-02T06:37:04.856Z,8.95
2023-04-02T06:38:04.645Z,9.01
2023-04-02T06:39:04.611Z,9.07
2023-04-02T06:40:04.614Z,9.09
2023-04-02T06:41:04.595Z,9.07
2023-04-02T06:42:04.597Z,9.09
2023-04-02T06:43:10.607Z,9.13
2023-04-02T06:44:10.571Z,9.16
2023-04-02T06:45:04.554Z,9.19
2023-04-02T06:46:04.618Z,9.23
2023-04-02T06:47:04.537Z,9.27
2023-04-02T06:48:04.608Z,9.30
2023-04-02T06:49:04.523Z,9.27
2023-04-02T06:50:10.516Z,9.35
2023-04-02T06:51:04.490Z,9.32
2023-04-02T06:52:04.490Z,9.31
2023-04-02T06:53:04.463Z,9.38
2023-04-02T06:54:04.465Z,9.37
2023-04-02T06:55:04.463Z,9.35
2023-04-02T06:56:10.470Z,9.34
2023-04-02T06:57:04.458Z,9.34
2023-04-02T06:58:04.421Z,9.35
2023-04-02T06:59:04.446Z,9.39
2023-04-02T07:00:04.403Z,9.38
2023-04-02T07:01:04.482Z,9.42
2023-04-02T07:02:04.377Z,9.45
2023-04-02T07:03:04.405Z,9.46
2023-04-02T07:04:04.353Z,9.47
2023-04-02T07:05:04.474Z,9.47
2023-04-02T07:06:04.339Z,9.45
2023-04-02T07:07:04.310Z,9.47
2023-04-02T07:08:04.315Z,9.35
2023-04-02T07:09:04.293Z,9.39
2023-04-02T07:10:04.292Z,9.37
2023-04-02T07:11:10.278Z,9.41
2023-04-02T07:12:04.274Z,9.35
2023-04-02T07:13:04.453Z,9.28
2023-04-02T07:14:04.250Z,9.35
2023-04-02T07:15:04.255Z,9.31
2023-04-02T07:16:04.488Z,9.34
2023-04-02T07:17:04.206Z,9.30
2023-04-02T07:18:04.300Z,9.38
2023-04-02T07:19:04.195Z,9.31
2023-04-02T07:20:04.185Z,9.27
2023-04-02T07:21:04.164Z,9.30
2023-04-02T07:22:04.154Z,9.32
2023-04-02T07:23:04.152Z,9.38
2023-04-02T07:24:04.134Z,9.39
2023-04-02T07:25:04.136Z,9.35
2023-04-02T07:26:04.116Z,9.35
2023-04-02T07:27:04.113Z,9.38
2023-04-02T07:28:04.099Z,9.41
2023-04-02T07:29:04.087Z,9.39
2023-04-02T07:30:04.074Z,9.46
2023-04-02T07:31:04.131Z,9.49
2023-04-02T07:32:04.048Z,9.47
2023-04-02T07:33:04.078Z,9.52
2023-04-02T07:34:04.029Z,9.47
2023-04-02T07:35:04.028Z,9.52
2023-04-02T07:36:04.049Z,9.57
2023-04-02T07:37:04.005Z,9.67
2023-04-02T07:38:03.983Z,9.71
2023-04-02T07:39:03.986Z,9.71
2023-04-02T07:40:03.961Z,9.73
2023-04-02T07:41:03.973Z,9.68
2023-04-02T07:42:04.149Z,9.77
2023-04-02T07:43:04.151Z,9.75
2023-04-02T07:44:03.946Z,9.73
2023-04-02T07:45:05.931Z,9.81
2023-04-02T07:46:04.116Z,9.89
2023-04-02T07:47:04.106Z,9.90
2023-04-02T07:48:10.089Z,9.84
2023-04-02T07:49:05.927Z,9.73
2023-04-02T07:50:03.881Z,9.74
2023-04-02T07:51:03.852Z,9.83
2023-04-02T07:52:03.853Z,9.83
2023-04-02T07:53:03.835Z,9.81
2023-04-02T07:54:03.835Z,9.71
2023-04-02T07:55:03.812Z,9.73
2023-04-02T07:56:03.821Z,9.68
2023-04-02T07:57:03.820Z,9.65
2023-04-02T07:58:03.787Z,9.67
2023-04-02T07:59:03.765Z,9.64
2023-04-02T08:00:03.765Z,9.67
2023-04-02T08:01:03.888Z,9.70
2023-04-02T08:02:03.768Z,9.73
2023-04-02T08:03:03.862Z,9.68
2023-04-02T08:04:09.770Z,9.59
2023-04-02T08:05:03.710Z,9.57
2023-04-02T08:06:09.711Z,9.59
2023-04-02T08:07:03.694Z,9.59
2023-04-02T08:08:03.750Z,9.64
2023-04-02T08:09:03.679Z,9.64
2023-04-02T08:10:03.674Z,9.63
2023-04-02T08:11:03.651Z,9.60
2023-04-02T08:12:03.644Z,9.60
2023-04-02T08:13:09.637Z,9.60
2023-04-02T08:14:03.619Z,9.67
2023-04-02T08:15:03.601Z,9.65
2023-04-02T08:16:03.595Z,9.67
2023-04-02T08:17:03.596Z,9.65
2023-04-02T08:18:03.620Z,9.64
2023-04-02T08:19:03.586Z,9.63
2023-04-02T08:20:03.564Z,9.63
2023-04-02T08:21:03.545Z,9.57
2023-04-02T08:22:03.532Z,9.60
2023-04-02T08:23:03.570Z,9.56
2023-04-02T08:24:05.562Z,9.57
2023-04-02T08:25:03.507Z,9.57
2023-04-02T08:26:03.485Z,9.55
2023-04-02T08:27:03.486Z,9.65
2023-04-02T08:28:03.669Z,9.65
2023-04-02T08:29:03.674Z,9.65
2023-04-02T08:30:03.464Z,9.71
2023-04-02T08:31:03.539Z,9.71
2023-04-02T08:32:03.439Z,9.71
2023-04-02T08:33:03.668Z,9.67
2023-04-02T08:34:03.406Z,9.71
2023-04-02T08:35:09.439Z,9.73
2023-04-02T08:36:03.445Z,9.77
2023-04-02T08:37:03.397Z,9.75
2023-04-02T08:38:03.363Z,9.71
2023-04-02T08:39:03.353Z,9.68
2023-04-02T08:40:03.345Z,9.73
2023-04-02T08:41:03.341Z,9.83
2023-04-02T08:42:03.327Z,9.86
2023-04-02T08:43:03.321Z,9.86
2023-04-02T08:44:03.304Z,9.91
2023-04-02T08:45:10.797Z,10.04
2023-04-02T08:46:04.327Z,10.12
2023-04-02T08:47:09.285Z,10.22
2023-04-02T08:48:03.526Z,10.22
2023-04-02T08:49:03.458Z,10.22
2023-04-02T08:50:03.233Z,10.26
2023-04-02T08:51:03.253Z,10.26
2023-04-02T08:52:03.221Z,10.25
2023-04-02T08:53:03.210Z,10.23
2023-04-02T08:54:09.211Z,10.15
2023-04-02T08:55:03.402Z,10.12
2023-04-02T08:56:03.171Z,10.09
2023-04-02T08:57:03.273Z,10.15
2023-04-02T08:58:03.149Z,10.12
2023-04-02T08:59:03.146Z,10.12
2023-04-02T09:00:03.135Z,10.15
2023-04-02T09:01:03.127Z,10.15
2023-04-02T09:02:03.393Z,10.11
2023-04-02T09:03:03.189Z,10.18
2023-04-02T09:04:03.089Z,10.14
2023-04-02T09:05:03.124Z,10.18
2023-04-02T09:06:03.065Z,10.32
2023-04-02T09:07:03.081Z,10.36
2023-04-02T09:08:03.039Z,10.52
2023-04-02T09:09:03.052Z,10.65
2023-04-02T09:10:03.033Z,10.73
2023-04-02T09:11:03.018Z,10.80
2023-04-02T09:12:03.011Z,10.91
2023-04-02T09:13:03.006Z,11.02
2023-04-02T09:14:08.998Z,11.02
2023-04-02T09:15:03.007Z,11.06
2023-04-02T09:16:03.032Z,10.87
2023-04-02T09:17:02.954Z,10.96
2023-04-02T09:18:02.950Z,11.03
2023-04-02T09:19:02.939Z,11.13
2023-04-02T09:20:02.918Z,10.98
2023-04-02T09:21:02.916Z,11.05
2023-04-02T09:22:03.094Z,11.08
2023-04-02T09:23:02.914Z,11.13
2023-04-02T09:24:04.017Z,11.14
2023-04-02T09:25:02.877Z,11.18
2023-04-02T09:26:04.559Z,11.28
2023-04-02T09:27:02.878Z,11.33
2023-04-02T09:28:03.042Z,11.33
2023-04-02T09:29:03.071Z,11.35
2023-04-02T09:30:37.522Z,11.36
2023-04-02T09:31:37.577Z,11.39
2023-04-02T09:32:43.516Z,11.44
2023-04-02T09:33:43.491Z,11.51
2023-04-02T09:34:37.463Z,11.61
2023-04-02T09:35:37.594Z,11.75
2023-04-02T09:36:37.447Z,11.93
2023-04-02T09:37:37.447Z,12.12
2023-04-02T09:38:37.652Z,12.18
2023-04-02T09:39:37.421Z,12.33
2023-04-02T09:40:37.401Z,12.46
2023-04-02T09:41:37.447Z,12.45
2023-04-02T09:42:37.377Z,12.52
2023-04-02T09:43:37.376Z,12.79
2023-04-02T09:44:37.361Z,13.01
2023-04-02T09:45:37.515Z,12.97
2023-04-02T09:46:37.395Z,12.93
2023-04-02T09:47:37.397Z,12.78
2023-04-02T09:48:37.318Z,12.75
2023-04-02T09:49:37.318Z,12.61
2023-04-02T09:50:37.297Z,12.37
2023-04-02T09:51:37.289Z,12.26
2023-04-02T09:52:37.276Z,12.12
2023-04-02T09:53:37.279Z,12.03
2023-04-02T09:54:37.277Z,11.95
2023-04-02T09:55:37.789Z,11.80
2023-04-02T09:56:37.232Z,11.80
2023-04-02T09:57:37.224Z,11.69
2023-04-02T09:58:37.207Z,11.75
2023-04-02T09:59:37.201Z,11.70
2023-04-02T10:00:37.204Z,11.73
2023-04-02T10:01:37.373Z,11.72
2023-04-02T10:02:37.238Z,11.80
2023-04-02T10:03:37.152Z,11.94
2023-04-02T10:04:37.205Z,12.00
2023-04-02T10:05:40.948Z,11.97
2023-04-02T10:06:37.116Z,11.97
2023-04-02T10:07:37.117Z,12.06
2023-04-02T10:08:37.096Z,11.95
2023-04-02T10:09:37.134Z,11.93
2023-04-02T10:10:37.390Z,11.90
2023-04-02T10:11:46.321Z,12.01
2023-04-02T10:12:38.095Z,12.01
2023-04-02T10:13:37.049Z,12.12
2023-04-02T10:14:37.037Z,12.16
2023-04-02T10:15:37.192Z,12.37
2023-04-02T10:16:37.084Z,12.45
2023-04-02T10:17:37.044Z,12.55
2023-04-02T10:18:36.996Z,12.53
2023-04-02T10:19:36.975Z,12.45
2023-04-02T10:20:50.416Z,12.34
2023-04-02T10:21:36.951Z,12.27
2023-04-02T10:22:36.955Z,12.20
2023-04-02T10:23:36.944Z,12.18
2023-04-02T10:24:36.931Z,12.16
2023-04-02T10:25:37.280Z,12.19
2023-04-02T10:26:36.952Z,12.23
2023-04-02T10:27:36.895Z,12.16
2023-04-02T10:28:36.886Z,12.22
2023-04-02T10:29:36.867Z,12.27
2023-04-02T10:30:36.889Z,12.36
2023-04-02T10:31:36.851Z,12.37
2023-04-02T10:32:36.925Z,12.18
2023-04-02T10:33:36.825Z,12.15
2023-04-02T10:34:36.833Z,12.09
2023-04-02T10:35:37.028Z,11.94
2023-04-02T10:36:36.813Z,11.91
2023-04-02T10:37:36.790Z,12.00
2023-04-02T10:38:36.789Z,12.08
2023-04-02T10:39:42.772Z,12.19
2023-04-02T10:40:36.767Z,12.15
2023-04-02T10:41:36.758Z,12.22
2023-04-02T10:42:36.784Z,12.38
2023-04-02T10:43:36.725Z,12.56
2023-04-02T10:44:36.721Z,12.65
2023-04-02T10:45:37.168Z,12.79
2023-04-02T10:46:36.772Z,12.95
2023-04-02T10:47:38.793Z,13.00
2023-04-02T10:48:36.668Z,13.03
2023-04-02T10:49:36.768Z,13.07
2023-04-02T10:50:36.660Z,13.19
2023-04-02T10:51:36.648Z,13.44
2023-04-02T10:52:36.632Z,13.56
2023-04-02T10:53:36.637Z,13.50
2023-04-02T10:54:36.607Z,13.37
2023-04-02T10:55:36.894Z,13.30
2023-04-02T10:56:47.966Z,13.30
2023-04-02T10:57:37.762Z,13.40
2023-04-02T10:58:36.586Z,13.50
2023-04-02T10:59:36.554Z,13.76
2023-04-02T11:00:36.549Z,13.95
2023-04-02T11:01:36.565Z,14.20
2023-04-02T11:02:36.911Z,14.14
2023-04-02T11:03:36.628Z,14.28
2023-04-02T11:04:36.528Z,14.65
2023-04-02T11:05:36.711Z,14.43
2023-04-02T11:06:36.475Z,14.32
2023-04-02T11:07:36.500Z,14.20
2023-04-02T11:08:38.521Z,13.96
2023-04-02T11:09:36.468Z,13.68
2023-04-02T11:10:36.485Z,13.68
2023-04-02T11:11:36.423Z,13.35
2023-04-02T11:12:41.374Z,13.33
2023-04-02T11:13:36.394Z,13.03
2023-04-02T11:14:36.425Z,12.68
2023-04-02T11:15:36.703Z,12.40
2023-04-02T11:16:38.860Z,12.30
2023-04-02T11:17:37.419Z,12.26
2023-04-02T11:18:36.362Z,12.12
2023-04-02T11:19:36.338Z,12.26
2023-04-02T11:20:36.343Z,12.51
2023-04-02T11:21:42.208Z,12.75
2023-04-02T11:22:37.344Z,12.93
2023-04-02T11:23:36.294Z,13.03
2023-04-02T11:24:36.285Z,13.26
2023-04-02T11:25:36.746Z,13.11
2023-04-02T11:26:36.277Z,13.26
2023-04-02T11:27:36.248Z,13.37
2023-04-02T11:28:36.247Z,13.45
2023-04-02T11:29:36.226Z,13.54
2023-04-02T11:30:42.259Z,13.70
2023-04-02T11:31:36.263Z,13.61
2023-04-02T11:32:36.230Z,13.58
2023-04-02T11:33:39.259Z,13.45
2023-04-02T11:34:42.191Z,13.17
2023-04-02T11:35:36.400Z,12.85
2023-04-02T11:36:36.158Z,12.77
2023-04-02T11:37:36.141Z,12.75
2023-04-02T11:38:36.137Z,12.48
2023-04-02T11:39:36.116Z,12.13
2023-04-02T11:40:36.114Z,12.11
2023-04-02T11:41:36.094Z,12.04
2023-04-02T11:42:36.104Z,11.93
2023-04-02T11:43:36.224Z,11.86
2023-04-02T11:44:36.070Z,11.79
2023-04-02T11:45:46.514Z,11.78
2023-04-02T11:46:36.113Z,11.70
2023-04-02T11:47:36.068Z,11.58
2023-04-02T11:48:36.062Z,11.47
2023-04-02T11:49:36.097Z,11.42
2023-04-02T11:50:36.009Z,11.28
2023-04-02T11:51:35.985Z,11.21
2023-04-02T11:52:35.988Z,11.22
2023-04-02T11:53:35.973Z,11.18
2023-04-02T11:54:35.961Z,11.13
2023-04-02T11:55:36.338Z,11.16
2023-04-02T11:56:35.940Z,11.16
2023-04-02T11:57:36.099Z,11.16
2023-04-02T11:58:35.921Z,11.17
2023-04-02T11:59:35.910Z,11.21
2023-04-02T12:00:36.106Z,11.29
2023-04-02T12:01:35.883Z,11.37
2023-04-02T12:02:36.043Z,11.47
2023-04-02T12:03:35.856Z,11.51
2023-04-02T12:04:41.869Z,11.54
2023-04-02T12:05:36.050Z,11.54
2023-04-02T12:06:42.046Z,11.47
2023-04-02T12:07:35.833Z,11.52
2023-04-02T12:08:44.224Z,11.51
2023-04-02T12:09:36.891Z,11.64
2023-04-02T12:10:41.796Z,11.64
2023-04-02T12:11:35.784Z,11.57
2023-04-02T12:12:35.772Z,11.61
2023-04-02T12:13:35.742Z,11.51
2023-04-02T12:14:35.760Z,11.51
2023-04-02T12:15:35.979Z,11.49
2023-04-02T12:16:35.789Z,11.46
2023-04-02T12:17:35.716Z,11.37
2023-04-02T12:18:35.723Z,11.33
2023-04-02T12:19:35.683Z,11.29
2023-04-02T12:20:35.899Z,11.25
2023-04-02T12:21:35.654Z,11.29
2023-04-02T12:22:35.654Z,11.28
2023-04-02T12:23:35.657Z,11.33
2023-04-02T12:24:35.629Z,11.33
2023-04-02T12:25:35.618Z,11.27
2023-04-02T12:26:35.624Z,11.17
2023-04-02T12:27:35.599Z,11.28
2023-04-02T12:28:35.587Z,11.28
2023-04-02T12:29:35.771Z,11.25
2023-04-02T12:30:35.772Z,11.10
2023-04-02T12:31:35.549Z,11.06
2023-04-02T12:32:35.578Z,11.14
2023-04-02T12:33:35.525Z,11.22
2023-04-02T12:34:35.745Z,11.27
2023-04-02T12:35:35.525Z,11.32
2023-04-02T12:36:35.713Z,11.33
2023-04-02T12:37:35.496Z,11.42
2023-04-02T12:38:35.479Z,11.43
2023-04-02T12:39:35.471Z,11.49
2023-04-02T12:40:35.763Z,11.46
2023-04-02T12:41:35.434Z,11.51
2023-04-02T12:42:35.436Z,11.55
2023-04-02T12:43:35.420Z,11.58
2023-04-02T12:44:35.412Z,11.58
2023-04-02T12:45:35.598Z,11.55
2023-04-02T12:46:35.537Z,11.52
2023-04-02T12:47:35.418Z,11.58
2023-04-02T12:48:35.374Z,11.62
2023-04-02T12:49:35.369Z,11.75
2023-04-02T12:50:35.660Z,11.72
2023-04-02T12:51:35.330Z,11.70
2023-04-02T12:52:35.329Z,11.73
2023-04-02T12:53:35.319Z,11.90
2023-04-02T12:54:35.306Z,12.04
2023-04-02T12:55:41.297Z,12.08
2023-04-02T12:56:35.286Z,12.12
2023-04-02T12:57:35.447Z,12.19
2023-04-02T12:58:41.280Z,12.23
2023-04-02T12:59:35.243Z,12.36
2023-04-02T13:00:35.532Z,12.45
2023-04-02T13:01:35.239Z,12.40
2023-04-02T13:02:41.306Z,12.28
2023-04-02T13:03:35.219Z,12.27
2023-04-02T13:04:35.238Z,12.30
2023-04-02T13:05:35.179Z,12.38
2023-04-02T13:06:35.218Z,12.48
2023-04-02T13:07:35.262Z,12.49
2023-04-02T13:08:35.150Z,12.41
2023-04-02T13:09:35.147Z,12.33
2023-04-02T13:10:35.431Z,12.41
2023-04-02T13:11:35.119Z,12.34
2023-04-02T13:12:35.125Z,12.15
2023-04-02T13:13:35.091Z,12.11
2023-04-02T13:14:35.088Z,12.09
2023-04-02T13:15:35.071Z,12.13
2023-04-02T13:16:41.163Z,12.04
2023-04-02T13:17:35.086Z,12.04
2023-04-02T13:18:35.050Z,11.83
2023-04-02T13:19:35.026Z,11.67
2023-04-02T13:20:35.308Z,11.73
2023-04-02T13:21:35.012Z,11.65
2023-04-02T13:22:35.044Z,11.65
2023-04-02T13:23:34.990Z,11.75
2023-04-02T13:24:34.982Z,11.80
2023-04-02T13:25:34.969Z,11.60
2023-04-02T13:26:34.978Z,11.57
2023-04-02T13:27:34.950Z,11.72
2023-04-02T13:28:34.953Z,11.83
2023-04-02T13:29:41.130Z,11.91
2023-04-02T13:30:35.157Z,12.06
2023-04-02T13:31:34.943Z,12.20
2023-04-02T13:32:34.951Z,12.20
2023-04-02T13:33:36.955Z,12.30
2023-04-02T13:34:34.876Z,12.36
2023-04-02T13:35:35.127Z,12.34
2023-04-02T13:36:40.858Z,12.31
2023-04-02T13:37:34.880Z,12.51
2023-04-02T13:38:34.850Z,12.74
2023-04-02T13:39:34.828Z,12.77
2023-04-02T13:40:34.970Z,12.96
2023-04-02T13:41:34.799Z,12.59
2023-04-02T13:42:40.795Z,12.65
2023-04-02T13:43:34.780Z,12.74
2023-04-02T13:44:34.761Z,12.89
2023-04-02T13:45:34.879Z,12.93
2023-04-02T13:46:34.737Z,13.07
2023-04-02T13:47:34.767Z,12.90
2023-04-02T13:48:40.728Z,13.19
2023-04-02T13:49:34.712Z,13.22
2023-04-02T13:50:34.981Z,13.26
2023-04-02T13:51:40.707Z,13.29
2023-04-02T13:52:40.677Z,13.29
2023-04-02T13:53:34.684Z,13.17
2023-04-02T13:54:40.691Z,13.11
2023-04-02T13:55:34.651Z,12.95
2023-04-02T13:56:34.638Z,12.95
2023-04-02T13:57:34.823Z,12.85
2023-04-02T13:58:34.609Z,12.85
2023-04-02T13:59:34.611Z,12.89
2023-04-02T14:00:34.728Z,12.93
2023-04-02T14:01:34.755Z,12.86
2023-04-02T14:02:34.582Z,12.75
2023-04-02T14:03:34.560Z,12.51
2023-04-02T14:04:34.774Z,12.36
2023-04-02T14:05:34.763Z,12.30
2023-04-02T14:06:34.523Z,12.13
2023-04-02T14:07:40.528Z,12.00
2023-04-02T14:08:34.504Z,11.93
2023-04-02T14:09:34.505Z,11.83
2023-04-02T14:10:34.504Z,11.80
2023-04-02T14:11:34.494Z,11.72
2023-04-02T14:12:34.460Z,11.60
2023-04-02T14:13:34.452Z,11.60
2023-04-02T14:14:34.638Z,11.52
2023-04-02T14:15:34.800Z,11.40
2023-04-02T14:16:34.457Z,11.39
2023-04-02T14:17:34.425Z,11.37
2023-04-02T14:18:34.393Z,11.33
2023-04-02T14:19:34.391Z,11.24
2023-04-02T14:20:34.367Z,11.13
2023-04-02T14:21:34.374Z,11.06
2023-04-02T14:22:34.361Z,10.99
2023-04-02T14:23:34.358Z,10.99
2023-04-02T14:24:34.343Z,10.93
2023-04-02T14:25:34.529Z,10.98
2023-04-02T14:26:34.340Z,10.90
2023-04-02T14:27:34.303Z,10.88
2023-04-02T14:28:34.297Z,10.87
2023-04-02T14:29:34.282Z,10.83
2023-04-02T14:30:40.336Z,10.84
2023-04-02T14:31:34.340Z,10.91
2023-04-02T14:32:34.310Z,10.98
2023-04-02T14:33:40.239Z,10.96
2023-04-02T14:34:34.227Z,11.03
2023-04-02T14:35:34.226Z,11.08
2023-04-02T14:36:34.209Z,11.06
2023-04-02T14:37:34.188Z,11.06
2023-04-02T14:38:40.389Z,11.03
2023-04-02T14:39:36.226Z,11.08
2023-04-02T14:40:40.162Z,11.09
2023-04-02T14:41:34.160Z,11.10
2023-04-02T14:42:34.208Z,11.17
2023-04-02T14:43:40.136Z,11.27
2023-04-02T14:44:34.108Z,11.27
2023-04-02T14:45:34.114Z,11.24
2023-04-02T14:46:36.860Z,11.22
2023-04-02T14:47:34.121Z,11.18
2023-04-02T14:48:34.070Z,11.16
2023-04-02T14:49:34.062Z,11.25
2023-04-02T14:50:34.232Z,11.21